Time;durP1;ratioP1;P1;durP2;ratioP2;P2;SDS_P1;SDS_P2;PMS_P1;PMS_P2;Temp;Humidity;BMP_temperature;BMP_pressure;BME280_temperature;BME280_humidity;BME280_pressure;Samples;Min_cycle;Max_cycle;Signal;HPM_P1;HPM_P2
2023/02/06 00:00:58;;;;;;;78.90;34.13;;;1.80;46.40;;;;;;7364644;19;20467;-78
2023/02/06 00:03:30;;;;;;;63.33;30.88;;;1.90;46.30;;;;;;7384905;19;20015;-77
2023/02/06 00:06:01;;;;;;;72.00;32.80;;;1.80;46.10;;;;;;7375033;19;20011;-76
2023/02/06 00:08:33;;;;;;;78.65;34.83;;;1.80;45.80;;;;;;7395170;19;20013;-77
2023/02/06 00:11:06;;;;;;;70.93;32.08;;;1.80;46.10;;;;;;7396866;19;20018;-77
2023/02/06 00:13:36;;;;;;;74.85;34.35;;;1.90;46.10;;;;;;7374512;19;20022;-77
2023/02/06 00:16:09;;;;;;;71.45;33.45;;;1.90;46.20;;;;;;7371478;19;20055;-77
2023/02/06 00:18:42;;;;;;;74.75;33.28;;;1.80;45.90;;;;;;7364426;19;20018;-77
2023/02/06 00:21:12;;;;;;;70.22;34.35;;;1.80;45.80;;;;;;7384304;19;20043;-76
2023/02/06 00:23:42;;;;;;;77.07;33.55;;;1.80;45.90;;;;;;7361530;19;20439;-76
2023/02/06 00:26:12;;;;;;;65.90;32.40;;;1.80;46.60;;;;;;7361881;19;20070;-76
2023/02/06 00:28:42;;;;;;;72.53;33.22;;;1.80;46.50;;;;;;7361519;19;20011;-76
2023/02/06 00:31:12;;;;;;;73.47;33.17;;;1.80;46.70;;;;;;7361774;19;20333;-78
2023/02/06 00:33:45;;;;;;;73.68;34.05;;;1.80;45.60;;;;;;7360965;19;20085;-77
2023/02/06 00:36:15;;;;;;;73.38;33.30;;;1.80;46.00;;;;;;7382783;19;20034;-76
2023/02/06 00:38:45;;;;;;;75.03;32.50;;;1.80;46.20;;;;;;7359861;19;20010;-77
2023/02/06 00:41:14;;;;;;;75.65;34.15;;;1.80;45.80;;;;;;7361787;19;20010;-76
2023/02/06 00:43:44;;;;;;;76.95;36.28;;;1.80;46.20;;;;;;7362765;19;20018;-76
2023/02/06 00:46:14;;;;;;;68.22;33.15;;;1.80;46.50;;;;;;7363838;19;20015;-77
2023/02/06 00:48:47;;;;;;;71.43;32.15;;;1.80;46.20;;;;;;7387121;19;20090;-77
2023/02/06 00:51:16;;;;;;;78.22;33.30;;;1.80;46.20;;;;;;7389145;19;20546;-77
2023/02/06 00:53:46;;;;;;;75.45;32.20;;;1.80;46.70;;;;;;7388640;19;20022;-77
2023/02/06 00:56:19;;;;;;;69.65;32.22;;;1.80;46.00;;;;;;7388630;19;20416;-77
2023/02/06 00:58:49;;;;;;;71.10;33.63;;;1.80;46.10;;;;;;7387718;19;20015;-77
2023/02/06 01:01:19;;;;;;;69.60;33.72;;;1.70;46.60;;;;;;7388564;19;20022;-77
2023/02/06 01:03:52;;;;;;;73.78;33.58;;;1.80;46.20;;;;;;7387640;19;20015;-77
2023/02/06 01:06:22;;;;;;;79.05;31.52;;;1.80;46.80;;;;;;7388422;19;20022;-78
2023/02/06 01:08:51;;;;;;;74.30;34.03;;;1.80;47.00;;;;;;7387409;19;20039;-78
2023/02/06 01:11:23;;;;;;;83.15;35.58;;;1.80;46.30;;;;;;7388209;19;20018;-77
2023/02/06 01:13:53;;;;;;;76.40;33.28;;;1.70;46.70;;;;;;7390933;19;20015;-77
2023/02/06 01:16:25;;;;;;;69.82;33.40;;;1.70;47.30;;;;;;7388313;19;20029;-77
2023/02/06 01:18:57;;;;;;;72.30;33.08;;;1.70;47.10;;;;;;7386836;19;20014;-77
2023/02/06 01:21:27;;;;;;;79.18;35.35;;;1.70;46.90;;;;;;7387981;19;20026;-77
2023/02/06 01:23:57;;;;;;;76.35;34.17;;;1.70;47.50;;;;;;7387448;19;20014;-77
2023/02/06 01:26:28;;;;;;;73.45;34.42;;;1.70;47.30;;;;;;7387827;19;20525;-77
2023/02/06 01:28:58;;;;;;;78.03;35.88;;;1.70;47.60;;;;;;7385322;19;20021;-77
2023/02/06 01:31:30;;;;;;;79.55;35.38;;;1.70;47.60;;;;;;7394785;19;20010;-77
2023/02/06 01:34:03;;;;;;;79.15;33.92;;;1.70;47.50;;;;;;7394952;19;20015;-77
2023/02/06 01:36:32;;;;;;;67.95;34.90;;;1.70;47.50;;;;;;7394786;19;20010;-77
2023/02/06 01:39:02;;;;;;;71.93;36.15;;;1.70;47.60;;;;;;7393576;19;20496;-77
2023/02/06 01:41:32;;;;;;;76.35;36.50;;;1.70;47.50;;;;;;7395119;19;20018;-77
2023/02/06 01:44:12;;;;;;;72.78;35.10;;;1.70;47.60;;;;;;7394589;19;20014;-78
2023/02/06 01:46:43;;;;;;;75.85;36.83;;;1.70;47.60;;;;;;7359091;19;20400;-77
2023/02/06 01:49:23;;;;;;;72.85;34.92;;;1.70;47.60;;;;;;7391694;19;20015;-76
2023/02/06 01:51:55;;;;;;;71.22;35.25;;;1.70;46.80;;;;;;7393756;19;20024;-77
2023/02/06 01:54:26;;;;;;;76.97;34.83;;;1.50;46.90;;;;;;7365239;19;20015;-76
2023/02/06 01:57:00;;;;;;;75.05;34.95;;;1.60;47.50;;;;;;7366486;19;20099;-77
2023/02/06 01:59:30;;;;;;;73.13;35.85;;;1.70;47.60;;;;;;7366260;19;20037;-77
2023/02/06 02:02:00;;;;;;;75.22;35.70;;;1.70;47.70;;;;;;7365963;19;20006;-77
2023/02/06 02:04:34;;;;;;;75.03;36.42;;;1.60;47.50;;;;;;7366546;19;20090;-77
2023/02/06 02:07:09;;;;;;;80.10;36.50;;;1.60;47.50;;;;;;7387561;19;20021;-76
2023/02/06 02:09:39;;;;;;;80.40;37.85;;;1.60;47.50;;;;;;7363776;19;20011;-77
2023/02/06 02:12:09;;;;;;;84.20;38.38;;;1.60;47.50;;;;;;7365731;19;20026;-77
2023/02/06 02:14:40;;;;;;;74.13;34.63;;;1.60;46.80;;;;;;7367493;19;20025;-77
2023/02/06 02:17:23;;;;;;;82.05;37.00;;;1.60;47.50;;;;;;7366155;19;20014;-77
2023/02/06 02:20:32;;;;;;;72.18;33.47;;;1.60;47.00;;;;;;7365072;19;20018;-76
2023/02/06 02:23:27;;;;;;;80.05;39.47;;;1.60;47.40;;;;;;7365758;19;20014;-78
2023/02/06 02:26:20;;;;;;;77.72;37.85;;;1.60;47.50;;;;;;7364915;19;20029;-78
2023/02/06 02:29:31;;;;;;;77.30;37.75;;;1.70;47.60;;;;;;7365071;19;20093;-77
2023/02/06 02:32:43;;;;;;;71.90;37.22;;;1.70;47.50;;;;;;7365175;19;20459;-77
2023/02/06 02:35:28;;;;;;;76.32;37.13;;;1.70;47.10;;;;;;7362659;19;20017;-77
2023/02/06 02:38:08;;;;;;;72.65;37.30;;;1.60;46.80;;;;;;7365602;19;20018;-77
2023/02/06 02:40:46;;;;;;;76.65;36.22;;;1.70;47.60;;;;;;7362360;19;20014;-77
2023/02/06 02:43:23;;;;;;;72.50;36.33;;;1.80;47.70;;;;;;7385973;19;20498;-77
2023/02/06 02:45:59;;;;;;;71.10;34.97;;;1.80;47.40;;;;;;7367874;19;20373;-78
2023/02/06 02:48:34;;;;;;;66.70;34.13;;;1.80;47.40;;;;;;7366509;19;20007;-77
2023/02/06 02:51:08;;;;;;;69.57;35.05;;;1.70;47.20;;;;;;7392372;19;20029;-77
2023/02/06 02:53:38;;;;;;;64.68;32.92;;;1.70;47.50;;;;;;7392108;19;20458;-77
2023/02/06 02:56:17;;;;;;;69.10;34.67;;;1.80;46.30;;;;;;7389354;19;20015;-77
2023/02/06 02:58:49;;;;;;;68.40;33.42;;;1.80;45.80;;;;;;7391104;19;20014;-77
2023/02/06 03:01:22;;;;;;;63.35;31.02;;;1.70;46.10;;;;;;7391891;19;20399;-77
2023/02/06 03:03:56;;;;;;;72.53;32.83;;;1.70;46.30;;;;;;7391389;19;20015;-77
2023/02/06 03:06:58;;;;;;;71.80;33.78;;;1.70;45.50;;;;;;7392110;19;20078;-77
2023/02/06 03:09:38;;;;;;;66.20;34.35;;;1.70;45.50;;;;;;7390126;19;20462;-78
2023/02/06 03:12:14;;;;;;;74.47;36.30;;;1.70;46.60;;;;;;7389584;19;20486;-77
2023/02/06 03:14:51;;;;;;;69.80;33.78;;;1.70;46.10;;;;;;7395769;19;20445;-77
2023/02/06 03:17:27;;;;;;;65.43;33.63;;;1.60;45.70;;;;;;7391178;19;20020;-77
2023/02/06 03:20:00;;;;;;;63.00;34.03;;;1.60;45.80;;;;;;7389334;19;20018;-77
2023/02/06 03:22:34;;;;;;;64.25;33.00;;;1.70;46.50;;;;;;7391152;19;20509;-77
2023/02/06 03:25:09;;;;;;;69.35;34.45;;;1.70;47.40;;;;;;7389349;19;20360;-77
2023/02/06 03:27:41;;;;;;;64.40;34.08;;;1.60;45.90;;;;;;7390703;19;20014;-77
2023/02/06 03:30:15;;;;;;;60.95;33.30;;;1.60;46.20;;;;;;7389070;19;20029;-76
2023/02/06 03:32:49;;;;;;;73.60;35.65;;;1.70;47.00;;;;;;7388976;19;20362;-76
2023/02/06 03:35:22;;;;;;;66.18;33.40;;;1.60;45.90;;;;;;7390523;19;20010;-77
2023/02/06 03:37:55;;;;;;;69.22;35.88;;;1.60;45.80;;;;;;7390487;19;20024;-77
2023/02/06 03:40:26;;;;;;;76.30;35.67;;;1.60;45.70;;;;;;7388704;19;20014;-77
2023/02/06 03:42:59;;;;;;;68.85;35.78;;;1.60;46.30;;;;;;7390020;19;20026;-77
2023/02/06 03:45:32;;;;;;;71.25;35.83;;;1.60;46.10;;;;;;7390177;19;20022;-77
2023/02/06 03:48:05;;;;;;;73.43;37.42;;;1.60;46.60;;;;;;7352790;19;20415;-78
2023/02/06 03:50:38;;;;;;;74.28;37.15;;;1.60;46.80;;;;;;7386227;19;20007;-77
2023/02/06 03:53:13;;;;;;;69.43;35.92;;;1.50;46.70;;;;;;7361089;19;20016;-77
2023/02/06 03:55:44;;;;;;;64.05;35.67;;;1.60;47.20;;;;;;7382865;19;20474;-77
2023/02/06 03:58:16;;;;;;;71.35;36.63;;;1.60;46.80;;;;;;7361613;19;20033;-77
2023/02/06 04:00:48;;;;;;;66.28;37.08;;;1.50;45.10;;;;;;7361762;19;20026;-77
2023/02/06 04:03:18;;;;;;;70.15;34.35;;;1.50;45.90;;;;;;7361402;19;20017;-77
2023/02/06 04:05:48;;;;;;;68.43;35.65;;;1.50;46.10;;;;;;7361395;19;20081;-77
2023/02/06 04:08:21;;;;;;;72.43;36.67;;;1.50;46.00;;;;;;7360991;19;20053;-77
2023/02/06 04:10:50;;;;;;;68.38;36.63;;;1.50;46.70;;;;;;7361055;19;20021;-78
2023/02/06 04:13:20;;;;;;;67.72;35.00;;;1.50;46.90;;;;;;7384734;19;20010;-77
2023/02/06 04:15:50;;;;;;;67.13;35.30;;;1.60;47.40;;;;;;7361039;19;20017;-77
2023/02/06 04:18:20;;;;;;;68.13;35.85;;;1.50;46.00;;;;;;7359566;19;20014;-77
2023/02/06 04:20:51;;;;;;;71.93;36.97;;;1.50;46.90;;;;;;7360842;19;20010;-77
2023/02/06 04:23:23;;;;;;;65.55;35.22;;;1.50;46.40;;;;;;7361247;19;20038;-77
2023/02/06 04:25:53;;;;;;;68.85;35.60;;;1.40;46.20;;;;;;7361148;19;20022;-78
2023/02/06 04:28:23;;;;;;;71.78;36.28;;;1.40;46.10;;;;;;7381995;19;20020;-78
2023/02/06 04:30:53;;;;;;;68.72;36.97;;;1.40;46.20;;;;;;7360670;19;20454;-77
2023/02/06 04:33:23;;;;;;;67.35;35.17;;;1.40;45.10;;;;;;7360612;19;20022;-78
2023/02/06 04:35:53;;;;;;;65.30;35.95;;;1.40;45.40;;;;;;7360610;19;20034;-77
2023/02/06 04:38:25;;;;;;;64.20;34.63;;;1.40;45.30;;;;;;7360844;19;20048;-76
2023/02/06 04:40:55;;;;;;;64.25;35.22;;;1.30;44.10;;;;;;7360186;19;20014;-77
2023/02/06 04:43:25;;;;;;;65.55;34.85;;;1.30;44.90;;;;;;7381854;19;20038;-76
2023/02/06 04:45:55;;;;;;;61.05;33.65;;;1.30;44.90;;;;;;7363396;19;20017;-77
2023/02/06 04:48:24;;;;;;;66.88;37.42;;;1.30;44.60;;;;;;7361756;19;20041;-77
2023/02/06 04:50:54;;;;;;;61.20;33.70;;;1.30;44.40;;;;;;7388948;19;20035;-78
2023/02/06 04:53:27;;;;;;;63.50;36.15;;;1.20;44.00;;;;;;7388241;19;20178;-77
2023/02/06 04:56:03;;;;;;;64.20;36.45;;;1.30;44.60;;;;;;7388174;19;20078;-77
2023/02/06 04:58:33;;;;;;;61.00;35.17;;;1.30;43.40;;;;;;7387286;19;20026;-76
2023/02/06 05:01:03;;;;;;;63.42;34.65;;;1.20;44.30;;;;;;7388818;19;20339;-77
2023/02/06 05:03:33;;;;;;;63.63;35.13;;;1.30;44.60;;;;;;7387805;19;20482;-78
2023/02/06 05:06:04;;;;;;;69.47;37.17;;;1.20;44.10;;;;;;7394560;19;20017;-76
2023/02/06 05:08:36;;;;;;;64.80;36.45;;;1.30;44.40;;;;;;7394491;19;20184;-78
2023/02/06 05:11:07;;;;;;;66.75;36.28;;;1.20;44.00;;;;;;7394088;19;20043;-78
2023/02/06 05:13:37;;;;;;;63.10;34.53;;;1.20;43.90;;;;;;7397605;19;20085;-78
2023/02/06 05:16:07;;;;;;;66.05;34.70;;;1.30;44.40;;;;;;7395061;19;20019;-78
2023/02/06 05:18:38;;;;;;;67.30;35.50;;;1.30;44.50;;;;;;7394233;19;20514;-78
2023/02/06 05:21:08;;;;;;;63.95;35.22;;;1.30;44.30;;;;;;7395267;19;20683;-78
2023/02/06 05:23:41;;;;;;;67.63;35.55;;;1.30;44.20;;;;;;7395085;19;20021;-78
2023/02/06 05:26:11;;;;;;;65.70;34.65;;;1.30;43.70;;;;;;7394855;19;20039;-78
2023/02/06 05:28:41;;;;;;;69.28;35.50;;;1.30;44.10;;;;;;7393566;19;20022;-78
2023/02/06 05:31:16;;;;;;;58.85;33.45;;;1.30;43.30;;;;;;7394399;19;20010;-78
2023/02/06 05:33:50;;;;;;;66.72;36.47;;;1.40;43.90;;;;;;7394110;19;20387;-78
2023/02/06 05:36:22;;;;;;;64.68;36.10;;;1.40;43.40;;;;;;7394164;19;20086;-78
2023/02/06 05:38:54;;;;;;;62.15;36.70;;;1.40;43.30;;;;;;7392536;19;20849;-78
2023/02/06 05:41:24;;;;;;;63.42;35.33;;;1.30;42.50;;;;;;7394624;19;20406;-77
2023/02/06 05:43:54;;;;;;;59.30;33.53;;;1.30;42.60;;;;;;7358981;19;20022;-76
2023/02/06 05:46:24;;;;;;;60.28;34.83;;;1.30;43.10;;;;;;7390501;19;20021;-77
2023/02/06 05:48:53;;;;;;;59.15;34.05;;;1.30;42.90;;;;;;7390121;19;20018;-76
2023/02/06 05:51:23;;;;;;;60.08;34.78;;;1.30;42.50;;;;;;7365200;19;20015;-77
2023/02/06 05:53:56;;;;;;;61.42;33.78;;;1.30;42.60;;;;;;7365457;19;20581;-77
2023/02/06 05:56:25;;;;;;;59.47;32.75;;;1.40;42.90;;;;;;7365606;19;20010;-77
2023/02/06 05:58:55;;;;;;;58.53;34.28;;;1.40;42.20;;;;;;7365021;19;20018;-78
2023/02/06 06:01:27;;;;;;;51.92;30.38;;;1.40;41.70;;;;;;7366536;19;20047;-77
2023/02/06 06:03:57;;;;;;;56.13;31.77;;;1.30;40.90;;;;;;7387828;19;20015;-77
2023/02/06 06:06:27;;;;;;;54.88;32.30;;;1.30;41.90;;;;;;7365384;19;20154;-78
2023/02/06 06:09:00;;;;;;;55.50;33.03;;;1.40;42.00;;;;;;7364104;19;20019;-77
2023/02/06 06:11:32;;;;;;;54.88;31.70;;;1.40;41.70;;;;;;7365697;19;20093;-77
2023/02/06 06:14:02;;;;;;;50.03;30.85;;;1.30;41.40;;;;;;7365954;19;20014;-77
2023/02/06 06:16:34;;;;;;;50.40;29.88;;;1.30;41.00;;;;;;7361677;19;20026;-77
2023/02/06 06:19:05;;;;;;;50.45;30.00;;;1.30;41.50;;;;;;7379503;19;20491;-77
2023/02/06 06:21:35;;;;;;;52.42;30.13;;;1.30;41.20;;;;;;7386168;19;20514;-77
2023/02/06 06:24:08;;;;;;;52.72;31.40;;;1.30;41.20;;;;;;7364249;19;20514;-77
2023/02/06 06:26:38;;;;;;;49.33;29.67;;;1.30;40.70;;;;;;7364538;19;20015;-77
2023/02/06 06:29:08;;;;;;;51.67;31.45;;;1.50;41.20;;;;;;7362386;19;20021;-78
2023/02/06 06:31:37;;;;;;;55.70;31.02;;;1.40;40.30;;;;;;7364969;19;20014;-77
2023/02/06 06:34:07;;;;;;;49.13;29.58;;;1.40;39.90;;;;;;7363864;19;20381;-78
2023/02/06 06:36:37;;;;;;;51.25;29.00;;;1.50;39.50;;;;;;7384775;19;20096;-78
2023/02/06 06:39:10;;;;;;;51.45;29.75;;;1.40;38.80;;;;;;7361398;19;20021;-78
2023/02/06 06:41:40;;;;;;;49.17;30.27;;;1.40;38.90;;;;;;7365446;19;20143;-78
2023/02/06 06:44:10;;;;;;;51.22;30.05;;;1.40;38.10;;;;;;7367062;19;20013;-78
2023/02/06 06:46:40;;;;;;;47.90;27.60;;;1.50;37.70;;;;;;7390046;19;20010;-78
2023/02/06 06:49:09;;;;;;;51.03;29.02;;;1.50;37.20;;;;;;7390171;19;20046;-78
2023/02/06 06:51:39;;;;;;;48.95;28.38;;;1.60;37.60;;;;;;7391657;19;20039;-77
2023/02/06 06:54:12;;;;;;;43.13;25.55;;;1.50;35.70;;;;;;7391074;19;20014;-78
2023/02/06 06:56:41;;;;;;;37.58;23.60;;;1.40;35.00;;;;;;7391126;19;20510;-78
2023/02/06 06:59:11;;;;;;;45.50;27.77;;;1.40;33.50;;;;;;7388447;19;20023;-78
2023/02/06 07:01:41;;;;;;;40.72;25.00;;;1.40;32.70;;;;;;7390568;19;20025;-78
2023/02/06 07:04:11;;;;;;;43.75;24.67;;;1.40;31.90;;;;;;7391345;19;20010;-77
2023/02/06 07:06:40;;;;;;;42.63;24.27;;;1.40;30.70;;;;;;7390632;19;20525;-77
2023/02/06 07:09:13;;;;;;;42.42;25.42;;;1.40;30.90;;;;;;7389837;19;20089;-77
2023/02/06 07:11:43;;;;;;;39.55;22.98;;;1.50;30.00;;;;;;7389431;19;20021;-78
2023/02/06 07:14:12;;;;;;;41.33;23.67;;;1.50;29.50;;;;;;7394111;19;20073;-78
2023/02/06 07:16:42;;;;;;;39.90;23.60;;;1.50;29.30;;;;;;7390947;19;20035;-78
2023/02/06 07:19:12;;;;;;;39.65;22.98;;;1.50;29.50;;;;;;7388446;19;20014;-78
2023/02/06 07:21:42;;;;;;;41.80;23.50;;;1.50;28.90;;;;;;7391782;19;20022;-78
2023/02/06 07:24:14;;;;;;;39.13;23.35;;;1.60;29.70;;;;;;7389960;19;20014;-78
2023/02/06 07:26:44;;;;;;;39.58;22.27;;;1.60;28.80;;;;;;7388553;19;20017;-79
2023/02/06 07:29:14;;;;;;;34.63;22.73;;;1.60;27.80;;;;;;7388884;19;20018;-78
2023/02/06 07:31:43;;;;;;;40.63;24.77;;;1.60;27.40;;;;;;7389541;19;20127;-78
2023/02/06 07:34:14;;;;;;;35.63;22.95;;;1.70;25.60;;;;;;7390105;19;20036;-78
2023/02/06 07:36:44;;;;;;;31.10;19.63;;;1.70;24.10;;;;;;7389861;19;20039;-78
2023/02/06 07:39:16;;;;;;;25.73;16.52;;;1.70;20.40;;;;;;7387554;19;20450;-79
2023/02/06 07:41:48;;;;;;;25.05;15.50;;;1.80;19.00;;;;;;7389716;19;20010;-78
2023/02/06 07:44:18;;;;;;;20.17;13.93;;;1.80;15.20;;;;;;7389623;19;20553;-78
2023/02/06 07:46:50;;;;;;;24.38;15.43;;;1.80;12.60;;;;;;7387873;19;20035;-78
2023/02/06 07:49:21;;;;;;;33.55;17.65;;;1.80;12.30;;;;;;7387271;19;20026;-78
2023/02/06 07:51:51;;;;;;;29.48;16.73;;;1.90;13.20;;;;;;7388829;19;20520;-78
2023/02/06 07:54:23;;;;;;;29.80;16.83;;;1.90;13.10;;;;;;7390125;19;20042;-78
2023/02/06 07:56:53;;;;;;;23.02;13.52;;;1.80;13.00;;;;;;7389515;19;20058;-78
2023/02/06 07:59:23;;;;;;;28.25;17.00;;;1.90;10.60;;;;;;7387239;19;20018;-78
2023/02/06 08:01:52;;;;;;;24.52;14.40;;;1.90;11.30;;;;;;7386771;19;20015;-78
2023/02/06 08:04:22;;;;;;;22.52;12.93;;;1.90;10.60;;;;;;7351291;19;20010;-78
2023/02/06 08:06:52;;;;;;;21.98;13.40;;;1.90;10.60;;;;;;7385468;19;20074;-79
2023/02/06 08:09:24;;;;;;;24.63;13.10;;;1.90;10.30;;;;;;7383397;19;20025;-78
2023/02/06 08:11:54;;;;;;;21.50;13.65;;;2.00;10.70;;;;;;7361376;19;20002;-78
2023/02/06 08:14:25;;;;;;;18.05;12.23;;;2.00;10.70;;;;;;7361928;19;20025;-78
2023/02/06 08:16:55;;;;;;;20.70;12.82;;;1.90;9.90;;;;;;7360935;19;20017;-79
2023/02/06 08:19:25;;;;;;;19.33;11.68;;;1.90;10.60;;;;;;7359886;19;20014;-79
2023/02/06 08:21:55;;;;;;;19.30;11.98;;;2.00;10.70;;;;;;7360301;19;20015;-78
2023/02/06 08:24:27;;;;;;;20.27;11.90;;;2.00;10.70;;;;;;7381704;19;20078;-79
2023/02/06 08:26:57;;;;;;;21.67;11.52;;;2.00;9.40;;;;;;7360357;19;20118;-78
2023/02/06 08:29:27;;;;;;;16.70;10.95;;;2.00;7.60;;;;;;7359554;19;20010;-79
2023/02/06 08:31:57;;;;;;;17.90;10.50;;;2.10;6.90;;;;;;7359713;19;20403;-79
2023/02/06 08:34:27;;;;;;;16.65;10.48;;;2.20;6.80;;;;;;7359442;19;20038;-79
2023/02/06 08:36:57;;;;;;;16.30;11.35;;;2.20;5.40;;;;;;7360705;19;20039;-78
2023/02/06 08:39:29;;;;;;;18.02;10.32;;;2.30;5.50;;;;;;7378315;19;20018;-78
2023/02/06 08:41:59;;;;;;;16.35;9.02;;;2.30;5.60;;;;;;7360098;19;20039;-79
2023/02/06 08:44:29;;;;;;;15.00;10.13;;;2.20;3.20;;;;;;7359618;19;20083;-79
2023/02/06 08:46:59;;;;;;;16.70;10.10;;;2.20;3.50;;;;;;7359865;19;20010;-79
2023/02/06 08:49:39;;;;;;;17.67;9.95;;;2.20;1.00;;;;;;7359026;19;20011;-78
2023/02/06 08:52:09;;;;;;;13.85;10.13;;;2.20;1.00;;;;;;7359716;19;20154;-79
2023/02/06 08:54:41;;;;;;;13.55;7.55;;;2.20;1.20;;;;;;7381539;19;20015;-78
2023/02/06 08:57:11;;;;;;;13.57;8.95;;;2.20;1.00;;;;;;7359549;19;20022;-77
2023/02/06 08:59:41;;;;;;;13.15;9.05;;;2.20;1.00;;;;;;7356967;19;20379;-78
2023/02/06 09:02:12;;;;;;;15.75;8.40;;;2.20;1.00;;;;;;7361660;19;20082;-80
2023/02/06 09:04:42;;;;;;;14.32;8.85;;;2.30;1.00;;;;;;7363846;19;20014;-77
2023/02/06 09:07:12;;;;;;;14.32;8.88;;;2.20;1.00;;;;;;7391323;19;20018;-78
2023/02/06 09:09:46;;;;;;;13.02;7.88;;;2.10;1.00;;;;;;7385779;19;20035;-78
2023/02/06 09:12:17;;;;;;;14.90;10.20;;;2.20;1.00;;;;;;7388307;19;20466;-78
2023/02/06 09:14:47;;;;;;;13.38;7.68;;;2.20;1.00;;;;;;7391100;19;20021;-78
2023/02/06 09:17:16;;;;;;;16.95;8.65;;;2.20;1.00;;;;;;7386895;19;20487;-78
2023/02/06 09:19:46;;;;;;;16.65;9.95;;;2.20;1.00;;;;;;7385266;19;20479;-78
2023/02/06 09:22:16;;;;;;;13.40;8.00;;;2.20;1.00;;;;;;7387442;19;20011;-78
2023/02/06 09:24:48;;;;;;;12.88;7.88;;;2.20;1.00;;;;;;7385555;19;20011;-79
2023/02/06 09:27:18;;;;;;;14.07;9.18;;;2.30;1.00;;;;;;7339832;19;20018;-79
2023/02/06 09:29:48;;;;;;;16.17;9.00;;;2.20;1.00;;;;;;7380677;19;20014;-79
2023/02/06 09:32:18;;;;;;;14.35;8.38;;;2.40;1.00;;;;;;7358889;19;20423;-78
2023/02/06 09:34:47;;;;;;;14.50;8.45;;;2.20;1.00;;;;;;7359519;19;20022;-79
2023/02/06 09:37:17;;;;;;;9.90;6.35;;;2.20;1.00;;;;;;7359215;19;20021;-77
2023/02/06 09:39:50;;;;;;;14.57;7.28;;;2.20;1.00;;;;;;7378953;19;20038;-78
2023/02/06 09:42:27;;;;;;;10.60;6.15;;;2.30;1.00;;;;;;7358348;19;20006;-77
2023/02/06 09:45:05;;;;;;;9.80;5.35;;;2.30;1.00;;;;;;7358637;19;20038;-77
2023/02/06 09:47:37;;;;;;;9.68;6.22;;;2.40;1.00;;;;;;7359920;19;20018;-76
2023/02/06 09:50:18;;;;;;;9.95;6.00;;;2.40;1.00;;;;;;7357837;19;20022;-78
2023/02/06 09:53:05;;;;;;;15.75;8.13;;;2.60;1.00;;;;;;7363786;19;20010;-78
2023/02/06 09:55:41;;;;;;;9.45;6.32;;;2.80;1.00;;;;;;7364080;19;20474;-77
2023/02/06 09:58:23;;;;;;;14.15;7.10;;;2.60;1.00;;;;;;7366565;19;20403;-78
2023/02/06 10:01:00;;;;;;;10.05;5.97;;;2.70;1.00;;;;;;7370473;19;20010;-79
2023/02/06 10:03:59;;;;;;;11.10;6.70;;;2.80;1.00;;;;;;7390124;19;20011;-78
2023/02/06 10:06:31;;;;;;;11.23;6.15;;;2.70;1.00;;;;;;7365095;19;20050;-78
2023/02/06 10:09:05;;;;;;;9.00;5.57;;;2.60;1.00;;;;;;7363874;19;20015;-78
2023/02/06 10:11:46;;;;;;;12.27;7.35;;;2.60;1.00;;;;;;7364805;19;20014;-79
2023/02/06 10:14:22;;;;;;;15.95;6.53;;;2.60;1.00;;;;;;7365580;19;20016;-78
2023/02/06 10:16:56;;;;;;;14.45;6.63;;;2.80;1.00;;;;;;7365531;19;20006;-78
2023/02/06 10:19:37;;;;;;;11.70;6.07;;;2.80;1.00;;;;;;7363566;19;20017;-78
2023/02/06 10:22:12;;;;;;;9.40;5.95;;;2.90;1.00;;;;;;7365067;19;20018;-78
2023/02/06 10:24:48;;;;;;;11.30;6.20;;;3.00;1.00;;;;;;7386280;19;20518;-78
2023/02/06 10:27:22;;;;;;;12.15;5.80;;;3.00;1.00;;;;;;7369009;19;20017;-78
2023/02/06 10:29:51;;;;;;;13.32;6.35;;;2.70;1.00;;;;;;7389595;19;20324;-78
2023/02/06 10:32:37;;;;;;;12.15;6.80;;;2.80;1.00;;;;;;7392101;19;20077;-78
2023/02/06 10:35:36;;;;;;;9.68;6.43;;;2.90;1.00;;;;;;7392783;19;20011;-78
2023/02/06 10:38:24;;;;;;;11.27;6.25;;;3.00;1.00;;;;;;7390254;19;20401;-79
2023/02/06 10:41:00;;;;;;;13.73;7.40;;;2.90;1.00;;;;;;7390527;19;20014;-79
2023/02/06 10:43:40;;;;;;;9.90;6.00;;;3.10;1.00;;;;;;7355190;19;20444;-78
2023/02/06 10:46:25;;;;;;;11.70;6.50;;;3.20;1.00;;;;;;7385098;19;20534;-78
2023/02/06 10:49:08;;;;;;;9.55;5.38;;;3.00;1.00;;;;;;7362123;19;20011;-78
2023/02/06 10:51:41;;;;;;;12.73;6.30;;;3.10;1.00;;;;;;7364438;19;20015;-78
2023/02/06 10:54:17;;;;;;;14.25;5.93;;;2.90;1.00;;;;;;7364215;19;20049;-78
2023/02/06 10:56:49;;;;;;;10.50;5.55;;;2.90;1.00;;;;;;7388477;19;20017;-78
2023/02/06 10:59:27;;;;;;;10.20;5.07;;;3.10;1.00;;;;;;7364111;19;20007;-78
2023/02/06 11:02:14;;;;;;;12.95;6.00;;;3.10;1.00;;;;;;7361449;19;20088;-78
2023/02/06 11:04:51;;;;;;;8.70;5.55;;;3.00;1.00;;;;;;7364346;19;20124;-79
2023/02/06 11:07:27;;;;;;;9.63;6.20;;;3.20;1.00;;;;;;7363403;19;20074;-78
2023/02/06 11:09:57;;;;;;;6.85;4.28;;;3.20;1.00;;;;;;7361565;19;20034;-78
2023/02/06 11:12:33;;;;;;;8.15;5.05;;;2.90;1.00;;;;;;7362044;19;20026;-78
2023/02/06 11:15:10;;;;;;;7.78;4.82;;;3.00;1.00;;;;;;7385039;19;20018;-78
2023/02/06 11:17:39;;;;;;;8.20;5.20;;;3.20;1.00;;;;;;7363110;19;20026;-79
2023/02/06 11:20:21;;;;;;;8.43;5.75;;;3.30;1.00;;;;;;7359208;19;20018;-78
2023/02/06 11:22:51;;;;;;;7.90;5.20;;;3.20;1.00;;;;;;7361911;19;20077;-77
2023/02/06 11:25:33;;;;;;;6.95;4.28;;;3.40;1.00;;;;;;7363245;19;20010;-77
2023/02/06 11:28:04;;;;;;;8.45;4.18;;;3.40;1.00;;;;;;7349282;19;20018;-77
2023/02/06 11:30:39;;;;;;;6.10;3.63;;;3.30;1.00;;;;;;7357066;19;20037;-76
2023/02/06 11:33:18;;;;;;;7.25;4.30;;;3.30;1.00;;;;;;7363339;19;20496;-77
2023/02/06 11:35:52;;;;;;;7.38;4.10;;;3.20;1.00;;;;;;7382664;19;20046;-78
2023/02/06 11:38:23;;;;;;;7.15;4.45;;;3.30;1.00;;;;;;7358763;19;20482;-77
2023/02/06 11:40:59;;;;;;;6.68;4.47;;;3.30;1.00;;;;;;7362329;19;20030;-77
2023/02/06 11:43:33;;;;;;;6.88;4.65;;;3.10;1.00;;;;;;7360449;19;20028;-79
2023/02/06 11:46:20;;;;;;;8.07;5.07;;;3.20;1.00;;;;;;7391915;19;20011;-77
2023/02/06 11:49:03;;;;;;;8.43;4.90;;;3.10;1.00;;;;;;7386765;19;20081;-77
2023/02/06 11:51:50;;;;;;;7.72;5.10;;;3.10;1.00;;;;;;7391468;19;20018;-78
2023/02/06 11:54:23;;;;;;;7.35;4.82;;;3.10;1.00;;;;;;7387603;19;20502;-77
2023/02/06 11:57:08;;;;;;;9.35;5.32;;;3.10;1.00;;;;;;7381970;19;20010;-76
2023/02/06 11:59:51;;;;;;;11.07;6.63;;;3.10;1.00;;;;;;7389364;19;20018;-77
2023/02/06 12:02:29;;;;;;;9.52;6.18;;;3.20;1.00;;;;;;7387614;19;20038;-77
2023/02/06 12:05:04;;;;;;;8.40;5.10;;;3.00;1.00;;;;;;7390766;19;20014;-78
2023/02/06 12:07:38;;;;;;;8.00;5.28;;;3.10;1.00;;;;;;7386142;19;20018;-77
2023/02/06 12:10:15;;;;;;;7.88;5.45;;;3.20;1.00;;;;;;7355816;19;20010;-77
2023/02/06 12:12:50;;;;;;;7.88;4.82;;;3.10;1.00;;;;;;7362379;19;20050;-77
2023/02/06 12:15:23;;;;;;;10.82;5.93;;;3.20;1.00;;;;;;7378816;19;20038;-77
2023/02/06 12:18:19;;;;;;;7.40;4.70;;;3.20;1.00;;;;;;7358716;19;20018;-77
2023/02/06 12:20:53;;;;;;;6.43;4.20;;;3.00;1.00;;;;;;7356916;19;20014;-78
2023/02/06 12:23:28;;;;;;;6.70;5.07;;;2.70;1.00;;;;;;7360361;19;20014;-77
2023/02/06 12:26:01;;;;;;;7.38;4.95;;;2.80;1.00;;;;;;7358783;19;20034;-76
2023/02/06 12:28:35;;;;;;;9.10;4.63;;;2.90;1.00;;;;;;7358921;19;20018;-77
2023/02/06 12:31:11;;;;;;;6.78;4.40;;;2.90;1.00;;;;;;7359202;19;20021;-78
2023/02/06 12:33:47;;;;;;;6.63;4.78;;;2.90;1.00;;;;;;7358505;19;20077;-77
2023/02/06 12:36:20;;;;;;;9.68;4.78;;;2.90;1.00;;;;;;7381200;19;20018;-77
2023/02/06 12:38:57;;;;;;;8.70;5.20;;;2.90;1.00;;;;;;7357103;19;20014;-77
2023/02/06 12:41:46;;;;;;;7.53;4.78;;;2.90;1.00;;;;;;7357685;19;20010;-77
2023/02/06 12:44:26;;;;;;;10.00;5.47;;;3.00;1.00;;;;;;7359211;19;20011;-77
2023/02/06 12:47:02;;;;;;;7.15;5.10;;;2.90;1.00;;;;;;7358569;19;20490;-77
2023/02/06 12:49:39;;;;;;;7.32;5.07;;;2.90;1.00;;;;;;7358890;19;20014;-77
2023/02/06 12:52:16;;;;;;;9.98;5.50;;;2.90;1.00;;;;;;7358965;19;20014;-77
2023/02/06 12:54:51;;;;;;;7.97;5.10;;;3.00;1.00;;;;;;7353919;19;20513;-77
2023/02/06 12:57:23;;;;;;;12.25;5.18;;;3.10;1.00;;;;;;7378408;19;20555;-77
2023/02/06 13:00:15;;;;;;;7.28;4.65;;;3.10;1.00;;;;;;7356627;19;20011;-77
2023/02/06 13:03:19;;;;;;;8.23;4.95;;;3.00;1.00;;;;;;7355112;19;20121;-77
2023/02/06 13:05:55;;;;;;;7.80;5.53;;;3.00;1.00;;;;;;7356372;19;20384;-76
2023/02/06 13:08:29;;;;;;;6.60;4.38;;;3.30;1.00;;;;;;7356015;19;20401;-75
2023/02/06 13:11:05;;;;;;;7.80;4.05;;;3.30;1.00;;;;;;7356714;19;20038;-77
2023/02/06 13:13:38;;;;;;;5.53;3.50;;;3.20;1.00;;;;;;7386648;19;20082;-77
2023/02/06 13:16:10;;;;;;;7.07;4.22;;;3.20;1.00;;;;;;7385251;19;20033;-77
2023/02/06 13:19:03;;;;;;;7.72;3.70;;;3.40;1.00;;;;;;7382436;19;20034;-77